createdAt,value
2022-11-16T00:02:18.731Z,98296.34
2022-11-16T00:04:45.640Z,98285.94
2022-11-16T00:07:12.528Z,98278.25
2022-11-16T00:09:39.475Z,98279.16
2022-11-16T00:12:07.282Z,98289.13
2022-11-16T00:14:35.018Z,98256.94
2022-11-16T00:17:02.035Z,98250.94
2022-11-16T00:19:29.157Z,98256.38
2022-11-16T00:21:56.076Z,98271.13
2022-11-16T00:24:23.416Z,98270.81
2022-11-16T00:26:50.561Z,98269.34
2022-11-16T00:29:20.079Z,98262.84
2022-11-16T00:31:47.108Z,98246.59
2022-11-16T00:34:14.143Z,98255.91
2022-11-16T00:36:41.018Z,98258.53
2022-11-16T00:39:13.307Z,98237.97
2022-11-16T00:41:40.805Z,98251.84
2022-11-16T00:44:08.029Z,98240.84
2022-11-16T00:46:34.855Z,98246.94
2022-11-16T00:49:02.037Z,98245.94
2022-11-16T00:51:29.248Z,98246.59
2022-11-16T00:53:56.496Z,98255.09
2022-11-16T00:56:23.408Z,98250.09
2022-11-16T00:58:50.268Z,98249.66
2022-11-16T01:01:17.303Z,98250.75
2022-11-16T01:03:44.271Z,98238.28
2022-11-16T01:06:13.028Z,98242.16
2022-11-16T01:08:40.236Z,98197.59
2022-11-16T01:11:26.139Z,98245.72
2022-11-16T01:13:53.085Z,98245.13
2022-11-16T01:16:21.050Z,98237.50
2022-11-16T01:18:49.192Z,98230.44
2022-11-16T01:21:16.644Z,98222.69
2022-11-16T01:23:44.253Z,98232.44
2022-11-16T01:26:11.127Z,98232.63
2022-11-16T01:28:39.508Z,98224.31
2022-11-16T01:31:08.239Z,98228.00
2022-11-16T01:33:36.911Z,98223.84
2022-11-16T01:36:08.171Z,98217.31
2022-11-16T01:38:35.539Z,98216.19
2022-11-16T01:41:02.793Z,98211.63
2022-11-16T01:43:48.330Z,98198.66
2022-11-16T01:46:15.641Z,98200.16
2022-11-16T01:48:42.695Z,98200.13
2022-11-16T01:51:09.576Z,98199.28
2022-11-16T01:53:36.623Z,98185.56
2022-11-16T01:56:03.995Z,98193.66
2022-11-16T01:58:43.061Z,98191.53
2022-11-16T02:01:25.523Z,98190.72
2022-11-16T02:03:56.249Z,98193.97
2022-11-16T02:06:23.318Z,98183.59
2022-11-16T02:09:25.710Z,98180.41
2022-11-16T02:12:06.504Z,98181.16
2022-11-16T02:15:07.855Z,98180.09
2022-11-16T02:17:47.316Z,98179.19
2022-11-16T02:20:48.859Z,98173.59
2022-11-16T02:23:21.875Z,98163.66
2022-11-16T02:26:09.003Z,98168.72
2022-11-16T02:29:15.413Z,98166.53
2022-11-16T02:32:06.395Z,98166.41
2022-11-16T02:34:53.061Z,98145.47
2022-11-16T02:37:20.984Z,98150.78
2022-11-16T02:39:49.257Z,98157.31
2022-11-16T02:42:26.298Z,98145.22
2022-11-16T02:44:53.282Z,98143.94
2022-11-16T02:47:22.779Z,98149.03
2022-11-16T02:49:56.522Z,98149.38
2022-11-16T02:52:23.476Z,98150.34
2022-11-16T02:54:50.291Z,98152.91
2022-11-16T02:57:25.381Z,98150.19
2022-11-16T02:59:53.462Z,98151.66
2022-11-16T03:02:28.254Z,98146.78
2022-11-16T03:04:59.704Z,98150.06
2022-11-16T03:07:33.680Z,98149.72
2022-11-16T03:10:00.715Z,98143.47
2022-11-16T03:12:31.450Z,98148.53
2022-11-16T03:15:00.091Z,98151.75
2022-11-16T03:17:47.303Z,98148.13
2022-11-16T03:20:16.402Z,98120.84
2022-11-16T03:22:48.415Z,98148.69
2022-11-16T03:25:18.479Z,98159.88
2022-11-16T03:27:59.790Z,98124.03
2022-11-16T03:30:27.962Z,98143.09
2022-11-16T03:33:27.387Z,98150.44
2022-11-16T03:36:01.613Z,98147.53
2022-11-16T03:38:31.257Z,98138.63
2022-11-16T03:41:01.254Z,98141.09
2022-11-16T03:43:28.783Z,98142.69
2022-11-16T03:45:55.672Z,98137.53
2022-11-16T03:48:23.669Z,98139.13
2022-11-16T03:50:50.742Z,98133.66
2022-11-16T03:53:18.891Z,98130.47
2022-11-16T03:55:49.830Z,98129.81
2022-11-16T03:58:18.663Z,98132.06
2022-11-16T04:00:45.820Z,98122.22
2022-11-16T04:03:12.917Z,98117.13
2022-11-16T04:05:58.689Z,98115.09
2022-11-16T04:08:44.106Z,98125.94
2022-11-16T04:11:34.027Z,98114.78
2022-11-16T04:14:19.619Z,98112.75
2022-11-16T04:17:05.213Z,98123.97
2022-11-16T04:19:56.751Z,98114.03
2022-11-16T04:22:46.760Z,98115.75
2022-11-16T04:25:20.836Z,98112.06
2022-11-16T04:28:06.383Z,98104.44
2022-11-16T04:30:51.904Z,98114.00
2022-11-16T04:33:38.178Z,98114.91
2022-11-16T04:36:23.715Z,98109.38
2022-11-16T04:38:50.635Z,98109.66
2022-11-16T04:41:37.004Z,98100.78
2022-11-16T04:44:03.949Z,98098.88
2022-11-16T04:47:03.337Z,98093.56
2022-11-16T04:49:30.408Z,98083.56
2022-11-16T04:51:58.713Z,98087.47
2022-11-16T04:54:26.146Z,98078.56
2022-11-16T04:56:53.230Z,98071.22
2022-11-16T04:59:21.018Z,98073.28
2022-11-16T05:02:06.720Z,98080.41
2022-11-16T05:04:33.877Z,98048.91
2022-11-16T05:07:01.087Z,98076.03
2022-11-16T05:09:28.108Z,98074.88
2022-11-16T05:11:55.032Z,98073.34
2022-11-16T05:14:22.212Z,98069.88
2022-11-16T05:16:49.652Z,98067.94
2022-11-16T05:19:35.989Z,98066.03
2022-11-16T05:22:04.122Z,98058.97
2022-11-16T05:24:33.865Z,98073.09
2022-11-16T05:27:07.263Z,98062.50
2022-11-16T05:29:35.259Z,98046.34
2022-11-16T05:32:03.726Z,98064.50
2022-11-16T05:34:31.700Z,98061.75
2022-11-16T05:37:00.562Z,98052.72
2022-11-16T05:39:29.731Z,98056.28
2022-11-16T05:41:57.108Z,98039.38
2022-11-16T05:44:24.323Z,98061.84
2022-11-16T05:46:51.798Z,98055.94
2022-11-16T05:49:20.243Z,98051.66
2022-11-16T05:51:48.355Z,98050.47
2022-11-16T05:54:20.279Z,98019.38
2022-11-16T05:56:48.226Z,98052.13
2022-11-16T05:59:17.464Z,98039.13
2022-11-16T06:01:45.804Z,98056.06
2022-11-16T06:04:13.007Z,98043.84
2022-11-16T06:06:40.320Z,98020.25
2022-11-16T06:09:07.921Z,98049.75
2022-11-16T06:11:38.274Z,98044.22
2022-11-16T06:14:06.294Z,98041.09
2022-11-16T06:16:34.705Z,98042.66
2022-11-16T06:19:05.321Z,98038.72
2022-11-16T06:21:33.157Z,98033.22
2022-11-16T06:24:05.868Z,98045.41
2022-11-16T06:26:32.827Z,98041.09
2022-11-16T06:28:59.933Z,98037.97
2022-11-16T06:31:28.001Z,98044.22
2022-11-16T06:33:55.461Z,98046.22
2022-11-16T06:36:26.243Z,98033.97
2022-11-16T06:38:53.677Z,98028.50
2022-11-16T06:41:22.124Z,98024.94
2022-11-16T06:43:50.538Z,97990.69
2022-11-16T06:46:21.040Z,97991.47
2022-11-16T06:48:48.523Z,98019.78
2022-11-16T06:51:15.426Z,98018.22
2022-11-16T06:53:42.749Z,98018.56
2022-11-16T06:56:09.643Z,98014.63
2022-11-16T06:58:43.045Z,98013.06
2022-11-16T07:01:11.748Z,97987.44
2022-11-16T07:03:41.061Z,98011.03
2022-11-16T07:06:13.018Z,97993.31
2022-11-16T07:08:42.671Z,98014.97
2022-11-16T07:11:11.452Z,98012.19
2022-11-16T07:13:38.627Z,97994.84
2022-11-16T07:16:07.828Z,98002.69
2022-11-16T07:18:35.984Z,97968.88
2022-11-16T07:21:15.548Z,97986.13
2022-11-16T07:23:43.969Z,98010.16
2022-11-16T07:26:15.239Z,98005.81
2022-11-16T07:28:53.451Z,97999.88
2022-11-16T07:31:22.433Z,98004.94
2022-11-16T07:34:10.360Z,97988.38
2022-11-16T07:36:42.773Z,97996.22
2022-11-16T07:39:10.767Z,97990.66
2022-11-16T07:41:38.641Z,97996.19
2022-11-16T07:44:25.815Z,97961.56
2022-11-16T07:47:05.530Z,98000.88
2022-11-16T07:49:34.048Z,97994.53
2022-11-16T07:52:21.570Z,97988.59
2022-11-16T07:55:10.216Z,97996.84
2022-11-16T07:57:37.278Z,97997.22
2022-11-16T08:00:07.408Z,97991.25
2022-11-16T08:02:50.408Z,97982.16
2022-11-16T08:05:20.020Z,97988.47
2022-11-16T08:07:49.100Z,97984.13
2022-11-16T08:10:17.137Z,97991.19
2022-11-16T08:12:44.259Z,97985.63
2022-11-16T08:15:11.728Z,97986.38
2022-11-16T08:17:38.724Z,97983.16
2022-11-16T08:20:08.439Z,97977.63
2022-11-16T08:22:35.553Z,97962.28
2022-11-16T08:25:02.818Z,97973.97
2022-11-16T08:27:31.078Z,97978.28
2022-11-16T08:29:58.133Z,97977.81
2022-11-16T08:32:25.983Z,97973.44
2022-11-16T08:34:54.206Z,97970.00
2022-11-16T08:37:22.099Z,97972.25
2022-11-16T08:39:49.241Z,97974.22
2022-11-16T08:42:16.190Z,97957.28
2022-11-16T08:44:46.715Z,97968.28
2022-11-16T08:47:15.749Z,97947.47
2022-11-16T08:49:52.104Z,97969.94
2022-11-16T08:52:22.299Z,97971.56
2022-11-16T08:54:50.946Z,97970.44
2022-11-16T08:57:18.167Z,97973.28
2022-11-16T08:59:48.399Z,97971.13
2022-11-16T09:02:15.436Z,97971.56
2022-11-16T09:04:44.767Z,97972.41
2022-11-16T09:07:11.920Z,97965.38
2022-11-16T09:09:43.380Z,97957.13
2022-11-16T09:12:10.322Z,97931.19
2022-11-16T09:14:37.325Z,97954.81
2022-11-16T09:17:04.301Z,97959.94
2022-11-16T09:19:31.192Z,97962.72
2022-11-16T09:21:58.201Z,97959.97
2022-11-16T09:24:25.053Z,97955.66
2022-11-16T09:26:51.975Z,97913.19
2022-11-16T09:29:19.016Z,97952.53
2022-11-16T09:31:46.162Z,97949.78
2022-11-16T09:34:13.109Z,97953.72
2022-11-16T09:36:40.130Z,97954.91
2022-11-16T09:42:01.801Z,97951.34
2022-11-16T09:44:57.862Z,97903.72
2022-11-16T09:47:36.225Z,97946.22
2022-11-16T09:50:04.324Z,97936.38
2022-11-16T09:52:44.792Z,97937.94
2022-11-16T09:55:25.101Z,97932.84
2022-11-16T09:57:53.759Z,97931.66
2022-11-16T10:00:25.772Z,97925.34
2022-11-16T10:03:06.544Z,97910.03
2022-11-16T10:05:56.458Z,97914.72
2022-11-16T10:08:28.429Z,97910.78
2022-11-16T10:11:00.215Z,97906.47
2022-11-16T10:13:34.965Z,97899.00
2022-11-16T10:16:32.434Z,97890.34
2022-11-16T10:19:05.833Z,97894.28
2022-11-16T10:22:17.937Z,97891.13
2022-11-16T10:24:58.025Z,97884.00
2022-11-16T10:27:50.232Z,97879.28
2022-11-16T10:30:20.824Z,97882.78
2022-11-16T10:33:12.819Z,97877.69
2022-11-16T10:35:48.305Z,97871.75
2022-11-16T10:38:17.316Z,97872.56
2022-11-16T10:40:46.450Z,97865.09
2022-11-16T10:43:16.867Z,97837.59
2022-11-16T10:45:45.957Z,97870.28
2022-11-16T10:48:17.946Z,97867.53
2022-11-16T10:50:46.931Z,97869.09
2022-11-16T10:53:15.309Z,97869.91
2022-11-16T10:55:42.380Z,97864.41
2022-11-16T10:58:09.394Z,97864.81
2022-11-16T11:00:48.122Z,97863.22
2022-11-16T11:03:15.323Z,97843.19
2022-11-16T11:05:52.518Z,97855.38
2022-11-16T11:08:39.720Z,97836.91
2022-11-16T11:11:25.519Z,97855.75
2022-11-16T11:14:08.457Z,97840.81
2022-11-16T11:16:35.535Z,97851.44
2022-11-16T11:19:18.892Z,97823.13
2022-11-16T11:21:45.961Z,97850.25
2022-11-16T11:24:43.263Z,97839.25
2022-11-16T11:27:04.784Z,97845.16
2022-11-16T11:29:32.719Z,97839.28
2022-11-16T11:32:07.447Z,97803.09
2022-11-16T11:34:39.812Z,97844.38
2022-11-16T11:37:07.240Z,97841.22
2022-11-16T11:39:35.275Z,97842.41
2022-11-16T11:42:09.383Z,97839.28
2022-11-16T11:44:37.389Z,97841.63
2022-11-16T11:47:57.262Z,97846.34
2022-11-16T11:50:46.001Z,97838.84
2022-11-16T11:53:29.287Z,97847.13
2022-11-16T11:55:58.361Z,97834.91
2022-11-16T11:58:35.690Z,97842.78
2022-11-16T12:01:24.999Z,97816.06
2022-11-16T12:04:34.548Z,97846.72
2022-11-16T12:07:32.200Z,97846.72
2022-11-16T12:10:20.260Z,97843.19
2022-11-16T12:12:49.867Z,97849.47
2022-11-16T12:15:51.561Z,97846.72
2022-11-16T12:18:31.560Z,97823.53
2022-11-16T12:21:27.953Z,97839.63
2022-11-16T12:24:09.882Z,97848.69
2022-11-16T12:26:52.827Z,97842.00
2022-11-16T12:29:27.195Z,97792.88
2022-11-16T12:31:54.052Z,97834.94
2022-11-16T12:35:02.840Z,97832.97
2022-11-16T12:37:39.441Z,97831.41
2022-11-16T12:40:21.620Z,97833.75
2022-11-16T12:43:03.795Z,97834.13
2022-11-16T12:45:48.782Z,97836.09
2022-11-16T12:48:21.619Z,97835.31
2022-11-16T12:51:06.857Z,97833.75
2022-11-16T12:53:47.312Z,97811.69
2022-11-16T12:56:49.457Z,97830.59
2022-11-16T12:59:25.681Z,97825.44
2022-11-16T13:02:08.539Z,97827.00
2022-11-16T13:04:41.592Z,97790.47
2022-11-16T13:07:11.601Z,97818.38
2022-11-16T13:09:47.492Z,97826.66
2022-11-16T13:12:17.285Z,97825.44
2022-11-16T13:14:48.212Z,97824.25
2022-11-16T13:17:41.586Z,97822.28
2022-11-16T13:20:33.041Z,97811.69
2022-11-16T13:23:18.995Z,97816.41
2022-11-16T13:25:59.904Z,97822.69
2022-11-16T13:28:37.528Z,97810.50
2022-11-16T13:31:20.884Z,97818.72
2022-11-16T13:33:51.209Z,97790.06
2022-11-16T13:36:43.554Z,97817.56
2022-11-16T13:39:52.492Z,97823.44
2022-11-16T13:42:19.430Z,97817.94
2022-11-16T13:44:51.384Z,97815.94
2022-11-16T13:47:24.818Z,97812.03
2022-11-16T13:49:56.695Z,97779.38
2022-11-16T13:52:28.740Z,97806.13
2022-11-16T13:55:27.816Z,97814.38
2022-11-16T13:57:55.412Z,97795.47
2022-11-16T14:00:33.453Z,97802.97
2022-11-16T14:03:15.642Z,97800.25
2022-11-16T14:05:47.203Z,97797.50
2022-11-16T14:08:20.090Z,97793.94
2022-11-16T14:10:52.753Z,97794.72
2022-11-16T14:13:39.696Z,97800.59
2022-11-16T14:16:19.505Z,97800.22
2022-11-16T14:18:53.266Z,97799.44
2022-11-16T14:21:20.265Z,97801.00
2022-11-16T14:24:14.884Z,97798.66
2022-11-16T14:27:17.067Z,97794.31
2022-11-16T14:30:19.628Z,97783.69
2022-11-16T14:32:47.649Z,97781.72
2022-11-16T14:35:37.306Z,97784.88
2022-11-16T14:38:06.596Z,97783.31
2022-11-16T14:40:41.910Z,97797.84
2022-11-16T14:43:17.569Z,97793.50
2022-11-16T14:45:47.471Z,97798.97
2022-11-16T14:48:19.277Z,97792.28
2022-11-16T14:51:07.593Z,97794.63
2022-11-16T14:53:35.536Z,97789.47
2022-11-16T14:56:13.047Z,97790.22
2022-11-16T14:58:40.183Z,97768.53
2022-11-16T15:01:11.838Z,97792.47
2022-11-16T15:04:04.844Z,97791.69
2022-11-16T15:06:58.178Z,97782.56
2022-11-16T15:09:38.721Z,97787.63
2022-11-16T15:12:25.224Z,97786.78
2022-11-16T15:14:56.484Z,97789.50
2022-11-16T15:17:30.128Z,97777.63
2022-11-16T15:20:01.464Z,97780.72
2022-11-16T15:22:32.216Z,97785.38
2022-11-16T15:25:00.239Z,97777.47
2022-11-16T15:27:41.142Z,97787.22
2022-11-16T15:30:16.211Z,97786.00
2022-11-16T15:32:46.631Z,97792.59
2022-11-16T15:35:34.032Z,97790.97
2022-11-16T15:38:22.751Z,97791.72
2022-11-16T15:40:55.527Z,97790.06
2022-11-16T15:43:24.531Z,97782.97
2022-11-16T15:45:51.842Z,97789.19
2022-11-16T15:48:22.987Z,97787.56
2022-11-16T15:51:15.518Z,97782.06
2022-11-16T15:53:43.958Z,97785.84
2022-11-16T15:56:16.818Z,97786.19
2022-11-16T15:58:43.749Z,97785.28
2022-11-16T16:01:11.241Z,97794.59
2022-11-16T16:03:38.462Z,97797.59
2022-11-16T16:06:05.869Z,97772.31
2022-11-16T16:08:33.427Z,97790.84
2022-11-16T16:11:09.472Z,97766.78
2022-11-16T16:13:41.575Z,97783.66
2022-11-16T16:16:22.856Z,97780.47
2022-11-16T16:18:49.915Z,97775.63
2022-11-16T16:21:16.768Z,97775.56
2022-11-16T16:23:45.619Z,97783.31
2022-11-16T16:26:13.566Z,97758.00
2022-11-16T16:28:40.397Z,97782.34
2022-11-16T16:31:07.522Z,97782.69
2022-11-16T16:33:34.663Z,97787.28
2022-11-16T16:36:01.878Z,97781.72
2022-11-16T16:38:29.214Z,97786.34
2022-11-16T16:41:05.304Z,97788.19
2022-11-16T16:43:32.549Z,97740.72
2022-11-16T16:46:03.786Z,97785.28
2022-11-16T16:48:30.632Z,97794.59
2022-11-16T16:50:57.594Z,97779.28
2022-11-16T16:53:24.526Z,97790.94
2022-11-16T16:55:51.366Z,97779.91
2022-11-16T16:58:18.753Z,97788.09
2022-11-16T17:00:45.799Z,97788.84
2022-11-16T17:03:12.653Z,97789.56
2022-11-16T17:05:39.576Z,97785.97
2022-11-16T17:08:06.442Z,97792.94
2022-11-16T17:10:33.282Z,97788.59
2022-11-16T17:13:03.090Z,97787.28
2022-11-16T17:15:30.076Z,97793.81
2022-11-16T17:17:58.281Z,97785.50
2022-11-16T17:20:25.210Z,97794.06
2022-11-16T17:22:52.027Z,97783.81
2022-11-16T17:25:18.856Z,97790.78
2022-11-16T17:27:45.706Z,97789.13
2022-11-16T17:30:13.373Z,97787.84
2022-11-16T17:32:40.199Z,97785.41
2022-11-16T17:35:07.405Z,97785.69
2022-11-16T17:37:34.203Z,97785.63
2022-11-16T17:40:01.041Z,97783.63
2022-11-16T17:42:27.891Z,97786.63
2022-11-16T17:44:55.194Z,97779.88
2022-11-16T17:47:22.202Z,97779.72
2022-11-16T17:49:49.052Z,97768.56
2022-11-16T17:52:15.890Z,97775.66
2022-11-16T17:54:42.756Z,97783.41
2022-11-16T17:57:09.687Z,97779.81
2022-11-16T17:59:36.505Z,97781.69
2022-11-16T18:02:03.301Z,97784.34
2022-11-16T18:04:30.182Z,97788.09
2022-11-16T18:06:57.171Z,97783.34
2022-11-16T18:09:24.210Z,97783.63
2022-11-16T18:11:51.062Z,97784.72
2022-11-16T18:14:17.885Z,97781.88
2022-11-16T18:16:44.773Z,97785.00
2022-11-16T18:19:15.897Z,97782.97
2022-11-16T18:21:42.849Z,97760.84
2022-11-16T18:24:09.732Z,97785.53
2022-11-16T18:26:36.719Z,97776.16
2022-11-16T18:29:03.570Z,97778.34
2022-11-16T18:31:32.911Z,97777.56
2022-11-16T18:34:01.027Z,97770.09
2022-11-16T18:36:27.885Z,97746.72
2022-11-16T18:38:54.824Z,97769.56
2022-11-16T18:41:24.096Z,97764.84
2022-11-16T18:43:52.655Z,97766.34
2022-11-16T18:46:20.553Z,97764.66
2022-11-16T18:48:47.772Z,97736.91
2022-11-16T18:51:15.179Z,97759.06
2022-11-16T18:53:42.017Z,97765.91
2022-11-16T18:56:08.995Z,97748.53
2022-11-16T18:58:49.746Z,97768.81
2022-11-16T19:01:18.546Z,97764.41
2022-11-16T19:03:45.525Z,97728.47
2022-11-16T19:06:12.408Z,97733.91
2022-11-16T19:08:40.265Z,97731.34
2022-11-16T19:11:08.975Z,97722.31
2022-11-16T19:13:36.111Z,97757.38
2022-11-16T19:16:03.289Z,97749.88
2022-11-16T19:18:30.096Z,97754.81
2022-11-16T19:21:14.142Z,97752.88
2022-11-16T19:23:48.465Z,97736.09
2022-11-16T19:26:16.178Z,97747.63
2022-11-16T19:28:44.289Z,97750.66
2022-11-16T19:31:12.780Z,97749.44
2022-11-16T19:33:40.097Z,97748.22
2022-11-16T19:36:11.029Z,97746.19
2022-11-16T19:38:37.922Z,97744.16
2022-11-16T19:41:05.553Z,97742.94
2022-11-16T19:43:33.216Z,97745.22
2022-11-16T19:46:04.173Z,97747.50
2022-11-16T19:48:32.353Z,97740.03
2022-11-16T19:51:05.469Z,97741.97
2022-11-16T19:53:32.853Z,97744.59
2022-11-16T19:55:59.898Z,97733.88
2022-11-16T19:58:26.790Z,97743.69
2022-11-16T20:01:00.453Z,97735.09
2022-11-16T20:03:27.343Z,97741.25
2022-11-16T20:05:54.287Z,97742.38
2022-11-16T20:08:21.145Z,97746.25
2022-11-16T20:10:47.980Z,97741.94
2022-11-16T20:13:14.794Z,97736.03
2022-11-16T20:15:41.664Z,97735.59
2022-11-16T20:18:08.526Z,97733.25
2022-11-16T20:20:35.335Z,97723.75
2022-11-16T20:23:02.204Z,97735.88
2022-11-16T20:25:29.532Z,97734.97
2022-11-16T20:27:56.389Z,97735.31
2022-11-16T20:30:23.263Z,97740.41
2022-11-16T20:32:50.172Z,97739.16
2022-11-16T20:35:19.223Z,97736.03
2022-11-16T20:37:46.296Z,97735.56
2022-11-16T20:40:13.742Z,97730.47
2022-11-16T20:42:40.570Z,97738.19
2022-11-16T20:45:08.242Z,97734.13
2022-11-16T20:47:35.075Z,97735.72
2022-11-16T20:50:03.191Z,97735.25
2022-11-16T20:52:30.205Z,97723.19
2022-11-16T20:54:57.035Z,97725.78
2022-11-16T20:57:24.095Z,97732.81
2022-11-16T20:59:50.977Z,97735.06
2022-11-16T21:02:17.842Z,97730.31
2022-11-16T21:04:44.649Z,97732.59
2022-11-16T21:07:11.547Z,97727.38
2022-11-16T21:09:58.362Z,97728.19
2022-11-16T21:12:43.906Z,97723.78
2022-11-16T21:15:10.897Z,97721.72
2022-11-16T21:17:37.736Z,97714.72
2022-11-16T21:20:26.321Z,97717.78
2022-11-16T21:22:51.674Z,97717.66
2022-11-16T21:25:18.548Z,97719.94
2022-11-16T21:27:46.279Z,97724.13
2022-11-16T21:30:13.753Z,97714.72
2022-11-16T21:32:40.621Z,97715.41
2022-11-16T21:35:07.802Z,97715.78
2022-11-16T21:37:34.636Z,97712.19
2022-11-16T21:40:01.559Z,97692.03
2022-11-16T21:42:28.387Z,97710.47
2022-11-16T21:44:55.202Z,97711.63
2022-11-16T21:47:22.273Z,97712.72
2022-11-16T21:50:16.714Z,97709.59
2022-11-16T21:52:36.382Z,97717.28
2022-11-16T21:55:03.299Z,97722.25
2022-11-16T21:57:30.126Z,97716.03
2022-11-16T21:59:57.028Z,97703.72
2022-11-16T22:02:23.862Z,97727.22
2022-11-16T22:05:23.206Z,97728.38
2022-11-16T22:07:50.110Z,97732.56
2022-11-16T22:10:17.349Z,97734.50
2022-11-16T22:12:44.213Z,97733.25
2022-11-16T22:15:11.186Z,97726.25
2022-11-16T22:17:44.782Z,97721.94
2022-11-16T22:20:11.764Z,97703.19
2022-11-16T22:22:38.578Z,97720.25
2022-11-16T22:25:06.306Z,97724.44
2022-11-16T22:27:42.383Z,97730.91
2022-11-16T22:30:19.364Z,97733.16
2022-11-16T22:32:46.163Z,97735.00
2022-11-16T22:35:13.050Z,97737.56
2022-11-16T22:37:39.956Z,97737.13
2022-11-16T22:40:07.254Z,97738.13
2022-11-16T22:42:34.123Z,97742.00
2022-11-16T22:45:01.005Z,97752.72
2022-11-16T22:47:27.828Z,97748.44
2022-11-16T22:49:54.693Z,97744.81
2022-11-16T22:52:21.597Z,97739.97
2022-11-16T22:54:48.527Z,97745.38
2022-11-16T22:57:15.401Z,97748.75
2022-11-16T22:59:42.264Z,97736.66
2022-11-16T23:02:09.162Z,97744.00
2022-11-16T23:04:36.072Z,97740.84
2022-11-16T23:07:03.215Z,97753.16
2022-11-16T23:09:32.013Z,97754.97
2022-11-16T23:12:17.558Z,97756.44
2022-11-16T23:15:03.157Z,97719.63
2022-11-16T23:17:30.012Z,97745.81
2022-11-16T23:20:17.760Z,97745.34
2022-11-16T23:23:03.789Z,97740.56
2022-11-16T23:26:00.245Z,97746.66
2022-11-16T23:28:27.112Z,97737.25
2022-11-16T23:30:54.048Z,97737.94
2022-11-16T23:33:40.866Z,97731.41
2022-11-16T23:36:08.142Z,97733.28
2022-11-16T23:38:34.996Z,97734.78
2022-11-16T23:41:21.807Z,97732.75
2022-11-16T23:44:00.744Z,97735.31
2022-11-16T23:46:28.975Z,97738.25
2022-11-16T23:48:55.910Z,97707.13
2022-11-16T23:51:23.515Z,97701.13
2022-11-16T23:53:51.772Z,97729.53
2022-11-16T23:56:19.667Z,97723.97
2022-11-16T23:58:46.591Z,97727.69
